sensor_id;sensor_type;location;lat;lon;timestamp;temperature;humidity
5508;DHT22;2776;51.046;6.772;2022-11-27T00:01:51;5.20;99.90
5508;DHT22;2776;51.046;6.772;2022-11-27T00:04:18;5.20;99.90
5508;DHT22;2776;51.046;6.772;2022-11-27T00:06:45;5.30;99.90
5508;DHT22;2776;51.046;6.772;2022-11-27T00:09:14;5.30;99.90
5508;DHT22;2776;51.046;6.772;2022-11-27T00:11:43;5.30;99.90
5508;DHT22;2776;51.046;6.772;2022-11-27T00:14:11;5.20;99.90
5508;DHT22;2776;51.046;6.772;2022-11-27T00:16:38;5.20;99.90
5508;DHT22;2776;51.046;6.772;2022-11-27T00:19:05;5.30;99.90
5508;DHT22;2776;51.046;6.772;2022-11-27T00:21:33;5.20;99.90
5508;DHT22;2776;51.046;6.772;2022-11-27T00:24:02;5.30;99.90
5508;DHT22;2776;51.046;6.772;2022-11-27T00:26:30;5.20;99.90
5508;DHT22;2776;51.046;6.772;2022-11-27T00:29:00;5.30;99.90
5508;DHT22;2776;51.046;6.772;2022-11-27T00:31:28;5.20;99.90
5508;DHT22;2776;51.046;6.772;2022-11-27T00:33:57;5.20;99.90
5508;DHT22;2776;51.046;6.772;2022-11-27T00:36:24;5.20;99.90
5508;DHT22;2776;51.046;6.772;2022-11-27T00:38:51;5.30;99.90
5508;DHT22;2776;51.046;6.772;2022-11-27T00:41:19;5.20;99.90
5508;DHT22;2776;51.046;6.772;2022-11-27T00:43:47;5.20;99.90
5508;DHT22;2776;51.046;6.772;2022-11-27T00:46:15;5.30;99.90
5508;DHT22;2776;51.046;6.772;2022-11-27T00:48:43;5.30;99.90
5508;DHT22;2776;51.046;6.772;2022-11-27T00:51:11;5.20;99.90
5508;DHT22;2776;51.046;6.772;2022-11-27T00:53:39;5.30;99.90
5508;DHT22;2776;51.046;6.772;2022-11-27T00:56:06;5.30;99.90
5508;DHT22;2776;51.046;6.772;2022-11-27T00:58:33;5.20;99.90
5508;DHT22;2776;51.046;6.772;2022-11-27T01:01:02;5.20;99.90
5508;DHT22;2776;51.046;6.772;2022-11-27T01:03:32;5.20;99.90
5508;DHT22;2776;51.046;6.772;2022-11-27T01:06:01;5.20;99.90
5508;DHT22;2776;51.046;6.772;2022-11-27T01:08:28;5.30;99.90
5508;DHT22;2776;51.046;6.772;2022-11-27T01:10:56;5.30;99.90
5508;DHT22;2776;51.046;6.772;2022-11-27T01:13:24;5.30;99.90
5508;DHT22;2776;51.046;6.772;2022-11-27T01:15:57;5.30;99.90
5508;DHT22;2776;51.046;6.772;2022-11-27T01:18:24;5.30;99.90
5508;DHT22;2776;51.046;6.772;2022-11-27T01:20:52;5.30;99.90
5508;DHT22;2776;51.046;6.772;2022-11-27T01:23:19;5.30;99.90
5508;DHT22;2776;51.046;6.772;2022-11-27T01:25:46;5.30;99.90
5508;DHT22;2776;51.046;6.772;2022-11-27T01:28:13;5.30;99.90
5508;DHT22;2776;51.046;6.772;2022-11-27T01:30:40;5.30;99.90
5508;DHT22;2776;51.046;6.772;2022-11-27T01:33:07;5.30;99.90
5508;DHT22;2776;51.046;6.772;2022-11-27T01:35:33;5.30;99.90
5508;DHT22;2776;51.046;6.772;2022-11-27T01:38:01;5.40;99.90
5508;DHT22;2776;51.046;6.772;2022-11-27T01:40:28;5.40;99.90
5508;DHT22;2776;51.046;6.772;2022-11-27T01:42:55;5.40;99.90
5508;DHT22;2776;51.046;6.772;2022-11-27T01:45:22;5.40;99.90
5508;DHT22;2776;51.046;6.772;2022-11-27T01:47:51;5.50;99.90
5508;DHT22;2776;51.046;6.772;2022-11-27T01:50:21;5.40;99.90
5508;DHT22;2776;51.046;6.772;2022-11-27T01:52:51;5.40;99.90
5508;DHT22;2776;51.046;6.772;2022-11-27T01:55:25;5.50;99.90
5508;DHT22;2776;51.046;6.772;2022-11-27T01:57:57;5.50;99.90
5508;DHT22;2776;51.046;6.772;2022-11-27T02:00:24;5.40;99.90
5508;DHT22;2776;51.046;6.772;2022-11-27T02:02:51;5.40;99.90
5508;DHT22;2776;51.046;6.772;2022-11-27T02:05:20;5.40;99.90
5508;DHT22;2776;51.046;6.772;2022-11-27T02:07:47;5.40;99.90
5508;DHT22;2776;51.046;6.772;2022-11-27T02:10:15;5.40;99.90
5508;DHT22;2776;51.046;6.772;2022-11-27T02:12:49;5.40;99.90
5508;DHT22;2776;51.046;6.772;2022-11-27T02:15:23;5.30;99.90
5508;DHT22;2776;51.046;6.772;2022-11-27T02:17:56;5.30;99.90
5508;DHT22;2776;51.046;6.772;2022-11-27T02:20:37;5.30;99.90
5508;DHT22;2776;51.046;6.772;2022-11-27T02:29:01;5.30;99.90
5508;DHT22;2776;51.046;6.772;2022-11-27T02:31:35;5.30;99.90
5508;DHT22;2776;51.046;6.772;2022-11-27T02:34:10;5.30;99.90
5508;DHT22;2776;51.046;6.772;2022-11-27T02:36:42;5.20;99.90
5508;DHT22;2776;51.046;6.772;2022-11-27T02:39:17;5.20;99.90
5508;DHT22;2776;51.046;6.772;2022-11-27T02:41:49;5.20;99.90
5508;DHT22;2776;51.046;6.772;2022-11-27T02:44:20;5.20;99.90
5508;DHT22;2776;51.046;6.772;2022-11-27T02:46:49;5.20;99.90
5508;DHT22;2776;51.046;6.772;2022-11-27T02:49:17;5.10;99.90
5508;DHT22;2776;51.046;6.772;2022-11-27T02:51:48;5.20;99.90
5508;DHT22;2776;51.046;6.772;2022-11-27T02:54:20;5.10;99.90
5508;DHT22;2776;51.046;6.772;2022-11-27T02:56:48;5.10;99.90
5508;DHT22;2776;51.046;6.772;2022-11-27T02:59:17;5.10;99.90
5508;DHT22;2776;51.046;6.772;2022-11-27T03:01:50;5.10;99.90
5508;DHT22;2776;51.046;6.772;2022-11-27T03:04:20;5.10;99.90
5508;DHT22;2776;51.046;6.772;2022-11-27T03:06:51;5.10;99.90
5508;DHT22;2776;51.046;6.772;2022-11-27T03:09:23;5.10;99.90
5508;DHT22;2776;51.046;6.772;2022-11-27T03:11:50;5.00;99.90
5508;DHT22;2776;51.046;6.772;2022-11-27T03:14:18;5.10;99.90
5508;DHT22;2776;51.046;6.772;2022-11-27T03:16:57;5.10;99.90
5508;DHT22;2776;51.046;6.772;2022-11-27T03:19:30;5.00;99.90
5508;DHT22;2776;51.046;6.772;2022-11-27T03:21:59;5.10;99.90
5508;DHT22;2776;51.046;6.772;2022-11-27T03:24:26;5.00;99.90
5508;DHT22;2776;51.046;6.772;2022-11-27T03:26:54;5.00;99.90
5508;DHT22;2776;51.046;6.772;2022-11-27T03:29:24;4.90;99.90
5508;DHT22;2776;51.046;6.772;2022-11-27T03:31:53;5.00;99.90
5508;DHT22;2776;51.046;6.772;2022-11-27T03:34:20;5.00;99.90
5508;DHT22;2776;51.046;6.772;2022-11-27T03:36:47;5.00;99.90
5508;DHT22;2776;51.046;6.772;2022-11-27T03:39:14;5.10;99.90
5508;DHT22;2776;51.046;6.772;2022-11-27T03:41:46;5.00;99.90
5508;DHT22;2776;51.046;6.772;2022-11-27T03:44:21;5.10;99.90
5508;DHT22;2776;51.046;6.772;2022-11-27T03:47:00;5.10;99.90
5508;DHT22;2776;51.046;6.772;2022-11-27T03:49:38;5.10;99.90
5508;DHT22;2776;51.046;6.772;2022-11-27T03:52:10;5.10;99.90
5508;DHT22;2776;51.046;6.772;2022-11-27T03:54:43;5.10;99.90
5508;DHT22;2776;51.046;6.772;2022-11-27T03:57:16;5.20;99.90
5508;DHT22;2776;51.046;6.772;2022-11-27T03:59:46;5.20;99.90
5508;DHT22;2776;51.046;6.772;2022-11-27T04:02:15;5.20;99.90
5508;DHT22;2776;51.046;6.772;2022-11-27T04:04:43;5.30;99.90
5508;DHT22;2776;51.046;6.772;2022-11-27T04:07:15;5.20;99.90
5508;DHT22;2776;51.046;6.772;2022-11-27T04:09:42;5.30;99.90
5508;DHT22;2776;51.046;6.772;2022-11-27T04:12:09;5.30;99.90
5508;DHT22;2776;51.046;6.772;2022-11-27T04:14:36;5.30;99.90
5508;DHT22;2776;51.046;6.772;2022-11-27T04:17:02;5.30;99.90
5508;DHT22;2776;51.046;6.772;2022-11-27T04:19:30;5.30;99.90
5508;DHT22;2776;51.046;6.772;2022-11-27T04:21:57;5.30;99.90
5508;DHT22;2776;51.046;6.772;2022-11-27T04:24:24;5.30;99.90
5508;DHT22;2776;51.046;6.772;2022-11-27T04:26:50;5.30;99.90
5508;DHT22;2776;51.046;6.772;2022-11-27T04:29:17;5.30;99.90
5508;DHT22;2776;51.046;6.772;2022-11-27T04:31:44;5.30;99.90
5508;DHT22;2776;51.046;6.772;2022-11-27T04:34:10;5.30;99.90
5508;DHT22;2776;51.046;6.772;2022-11-27T04:36:38;5.40;99.90
5508;DHT22;2776;51.046;6.772;2022-11-27T04:39:06;5.40;99.90
5508;DHT22;2776;51.046;6.772;2022-11-27T04:41:33;5.40;99.90
5508;DHT22;2776;51.046;6.772;2022-11-27T04:43:59;5.30;99.90
5508;DHT22;2776;51.046;6.772;2022-11-27T04:46:26;5.30;99.90
5508;DHT22;2776;51.046;6.772;2022-11-27T04:48:53;5.30;99.90
5508;DHT22;2776;51.046;6.772;2022-11-27T04:51:20;5.40;99.90
5508;DHT22;2776;51.046;6.772;2022-11-27T04:53:48;5.40;99.90
5508;DHT22;2776;51.046;6.772;2022-11-27T04:56:15;5.40;99.90
5508;DHT22;2776;51.046;6.772;2022-11-27T04:58:41;5.40;99.90
5508;DHT22;2776;51.046;6.772;2022-11-27T05:01:08;5.40;99.90
5508;DHT22;2776;51.046;6.772;2022-11-27T05:03:35;5.40;99.90
5508;DHT22;2776;51.046;6.772;2022-11-27T05:06:02;5.40;99.90
5508;DHT22;2776;51.046;6.772;2022-11-27T05:08:30;5.40;99.90
5508;DHT22;2776;51.046;6.772;2022-11-27T05:11:00;5.40;99.90
5508;DHT22;2776;51.046;6.772;2022-11-27T05:13:26;5.40;99.90
5508;DHT22;2776;51.046;6.772;2022-11-27T05:15:53;5.40;99.90
5508;DHT22;2776;51.046;6.772;2022-11-27T05:18:20;5.40;99.90
5508;DHT22;2776;51.046;6.772;2022-11-27T05:20:47;5.40;99.90
5508;DHT22;2776;51.046;6.772;2022-11-27T05:23:13;5.50;99.90
5508;DHT22;2776;51.046;6.772;2022-11-27T05:25:40;5.40;99.90
5508;DHT22;2776;51.046;6.772;2022-11-27T05:28:09;5.40;99.90
5508;DHT22;2776;51.046;6.772;2022-11-27T05:30:35;5.40;99.90
5508;DHT22;2776;51.046;6.772;2022-11-27T05:33:02;5.40;99.90
5508;DHT22;2776;51.046;6.772;2022-11-27T05:35:29;5.50;99.90
5508;DHT22;2776;51.046;6.772;2022-11-27T05:37:55;5.40;99.90
5508;DHT22;2776;51.046;6.772;2022-11-27T05:40:22;5.50;99.90
5508;DHT22;2776;51.046;6.772;2022-11-27T05:42:49;5.50;99.90
5508;DHT22;2776;51.046;6.772;2022-11-27T05:45:17;5.50;99.90
5508;DHT22;2776;51.046;6.772;2022-11-27T05:47:44;5.50;99.90
5508;DHT22;2776;51.046;6.772;2022-11-27T05:50:10;5.50;99.90
5508;DHT22;2776;51.046;6.772;2022-11-27T05:52:37;5.50;99.90
5508;DHT22;2776;51.046;6.772;2022-11-27T05:55:05;5.50;99.90
5508;DHT22;2776;51.046;6.772;2022-11-27T05:57:31;5.40;99.90
5508;DHT22;2776;51.046;6.772;2022-11-27T05:59:58;5.40;99.90
5508;DHT22;2776;51.046;6.772;2022-11-27T06:02:26;5.40;99.90
5508;DHT22;2776;51.046;6.772;2022-11-27T06:04:53;5.40;99.90
5508;DHT22;2776;51.046;6.772;2022-11-27T06:07:20;5.40;99.90
5508;DHT22;2776;51.046;6.772;2022-11-27T06:09:46;5.40;99.90
5508;DHT22;2776;51.046;6.772;2022-11-27T06:12:13;5.50;99.90
5508;DHT22;2776;51.046;6.772;2022-11-27T06:14:40;5.50;99.90
5508;DHT22;2776;51.046;6.772;2022-11-27T06:17:06;5.50;99.90
5508;DHT22;2776;51.046;6.772;2022-11-27T06:19:34;5.50;99.90
5508;DHT22;2776;51.046;6.772;2022-11-27T06:22:01;5.50;99.90
5508;DHT22;2776;51.046;6.772;2022-11-27T06:24:28;5.50;99.90
5508;DHT22;2776;51.046;6.772;2022-11-27T06:26:54;5.50;99.90
5508;DHT22;2776;51.046;6.772;2022-11-27T06:29:21;5.50;99.90
5508;DHT22;2776;51.046;6.772;2022-11-27T06:31:48;5.50;99.90
5508;DHT22;2776;51.046;6.772;2022-11-27T06:34:15;5.50;99.90
5508;DHT22;2776;51.046;6.772;2022-11-27T06:36:43;5.50;99.90
5508;DHT22;2776;51.046;6.772;2022-11-27T06:39:10;5.50;99.90
5508;DHT22;2776;51.046;6.772;2022-11-27T06:41:37;5.60;99.90
5508;DHT22;2776;51.046;6.772;2022-11-27T06:44:04;5.60;99.90
5508;DHT22;2776;51.046;6.772;2022-11-27T06:46:31;5.60;99.90
5508;DHT22;2776;51.046;6.772;2022-11-27T06:48:58;5.70;99.90
5508;DHT22;2776;51.046;6.772;2022-11-27T06:51:26;5.60;99.90
5508;DHT22;2776;51.046;6.772;2022-11-27T06:53:54;5.60;99.90
5508;DHT22;2776;51.046;6.772;2022-11-27T06:56:22;5.60;99.90
5508;DHT22;2776;51.046;6.772;2022-11-27T06:58:50;5.60;99.90
5508;DHT22;2776;51.046;6.772;2022-11-27T07:01:17;5.60;99.90
5508;DHT22;2776;51.046;6.772;2022-11-27T07:03:44;5.60;99.90
5508;DHT22;2776;51.046;6.772;2022-11-27T07:06:13;5.70;99.90
5508;DHT22;2776;51.046;6.772;2022-11-27T07:08:41;5.60;99.90
5508;DHT22;2776;51.046;6.772;2022-11-27T07:11:11;5.70;99.90
5508;DHT22;2776;51.046;6.772;2022-11-27T07:13:38;5.60;99.90
5508;DHT22;2776;51.046;6.772;2022-11-27T07:16:06;5.70;99.90
5508;DHT22;2776;51.046;6.772;2022-11-27T07:18:35;5.70;99.90
5508;DHT22;2776;51.046;6.772;2022-11-27T07:21:02;5.70;99.90
5508;DHT22;2776;51.046;6.772;2022-11-27T07:23:29;5.80;99.90
5508;DHT22;2776;51.046;6.772;2022-11-27T07:25:56;5.80;99.90
5508;DHT22;2776;51.046;6.772;2022-11-27T07:28:24;5.90;99.90
5508;DHT22;2776;51.046;6.772;2022-11-27T07:30:54;5.90;99.90
5508;DHT22;2776;51.046;6.772;2022-11-27T07:33:21;6.00;99.90
5508;DHT22;2776;51.046;6.772;2022-11-27T07:35:48;6.10;99.90
5508;DHT22;2776;51.046;6.772;2022-11-27T07:38:14;6.10;99.90
5508;DHT22;2776;51.046;6.772;2022-11-27T07:40:41;6.10;99.90
5508;DHT22;2776;51.046;6.772;2022-11-27T07:43:08;6.10;99.90
5508;DHT22;2776;51.046;6.772;2022-11-27T07:45:36;6.20;99.90
5508;DHT22;2776;51.046;6.772;2022-11-27T07:48:03;6.20;99.90
5508;DHT22;2776;51.046;6.772;2022-11-27T07:50:29;6.30;99.90
5508;DHT22;2776;51.046;6.772;2022-11-27T07:52:56;6.30;99.90
5508;DHT22;2776;51.046;6.772;2022-11-27T07:55:23;6.40;99.90
5508;DHT22;2776;51.046;6.772;2022-11-27T07:57:50;6.40;99.90
5508;DHT22;2776;51.046;6.772;2022-11-27T08:00:17;6.50;99.90
5508;DHT22;2776;51.046;6.772;2022-11-27T08:02:46;6.50;99.90
5508;DHT22;2776;51.046;6.772;2022-11-27T08:05:12;6.50;99.90
5508;DHT22;2776;51.046;6.772;2022-11-27T08:07:39;6.50;99.90
5508;DHT22;2776;51.046;6.772;2022-11-27T08:10:07;6.60;99.90
5508;DHT22;2776;51.046;6.772;2022-11-27T08:12:34;6.70;99.90
5508;DHT22;2776;51.046;6.772;2022-11-27T08:15:00;6.70;99.90
5508;DHT22;2776;51.046;6.772;2022-11-27T08:17:29;6.70;99.90
5508;DHT22;2776;51.046;6.772;2022-11-27T08:19:57;6.70;99.90
5508;DHT22;2776;51.046;6.772;2022-11-27T08:22:23;6.80;99.90
5508;DHT22;2776;51.046;6.772;2022-11-27T08:24:50;6.80;99.90
5508;DHT22;2776;51.046;6.772;2022-11-27T08:27:17;6.90;99.90
5508;DHT22;2776;51.046;6.772;2022-11-27T08:29:44;7.00;99.90
5508;DHT22;2776;51.046;6.772;2022-11-27T08:32:10;7.10;99.90
5508;DHT22;2776;51.046;6.772;2022-11-27T08:34:37;7.10;99.90
5508;DHT22;2776;51.046;6.772;2022-11-27T08:37:06;7.10;99.90
5508;DHT22;2776;51.046;6.772;2022-11-27T08:39:33;7.10;99.90
5508;DHT22;2776;51.046;6.772;2022-11-27T08:41:59;7.20;99.90
5508;DHT22;2776;51.046;6.772;2022-11-27T08:44:26;7.30;99.90
5508;DHT22;2776;51.046;6.772;2022-11-27T08:46:53;7.40;99.90
5508;DHT22;2776;51.046;6.772;2022-11-27T08:49:20;7.30;99.90
5508;DHT22;2776;51.046;6.772;2022-11-27T08:51:46;7.40;99.90
5508;DHT22;2776;51.046;6.772;2022-11-27T08:54:14;7.40;99.90
5508;DHT22;2776;51.046;6.772;2022-11-27T08:56:41;7.50;99.90
5508;DHT22;2776;51.046;6.772;2022-11-27T08:59:08;7.50;99.90
5508;DHT22;2776;51.046;6.772;2022-11-27T09:01:34;7.40;99.90
5508;DHT22;2776;51.046;6.772;2022-11-27T09:04:02;7.40;99.90
5508;DHT22;2776;51.046;6.772;2022-11-27T09:06:30;7.50;99.90
5508;DHT22;2776;51.046;6.772;2022-11-27T09:08:59;7.50;99.90
5508;DHT22;2776;51.046;6.772;2022-11-27T09:11:28;7.50;99.90
5508;DHT22;2776;51.046;6.772;2022-11-27T09:13:55;7.50;99.90
5508;DHT22;2776;51.046;6.772;2022-11-27T09:16:23;7.60;99.90
5508;DHT22;2776;51.046;6.772;2022-11-27T09:18:51;7.60;99.90
5508;DHT22;2776;51.046;6.772;2022-11-27T09:21:20;7.70;99.90
5508;DHT22;2776;51.046;6.772;2022-11-27T09:23:47;7.70;99.90
5508;DHT22;2776;51.046;6.772;2022-11-27T09:26:15;7.90;99.90
5508;DHT22;2776;51.046;6.772;2022-11-27T09:28:43;7.80;99.90
5508;DHT22;2776;51.046;6.772;2022-11-27T09:31:12;7.90;99.90
5508;DHT22;2776;51.046;6.772;2022-11-27T09:33:40;7.90;99.90
5508;DHT22;2776;51.046;6.772;2022-11-27T09:36:09;7.90;99.90
5508;DHT22;2776;51.046;6.772;2022-11-27T09:38:36;8.00;99.90
5508;DHT22;2776;51.046;6.772;2022-11-27T09:41:12;8.10;99.90
5508;DHT22;2776;51.046;6.772;2022-11-27T09:43:49;8.20;99.90
5508;DHT22;2776;51.046;6.772;2022-11-27T09:46:22;8.20;99.90
5508;DHT22;2776;51.046;6.772;2022-11-27T09:48:51;8.30;99.90
5508;DHT22;2776;51.046;6.772;2022-11-27T09:51:24;8.40;99.90
5508;DHT22;2776;51.046;6.772;2022-11-27T09:53:58;8.40;99.90
5508;DHT22;2776;51.046;6.772;2022-11-27T09:56:28;8.40;99.90
5508;DHT22;2776;51.046;6.772;2022-11-27T09:58:58;8.50;99.90
5508;DHT22;2776;51.046;6.772;2022-11-27T10:01:28;8.50;99.90
5508;DHT22;2776;51.046;6.772;2022-11-27T10:03:55;8.50;99.90
5508;DHT22;2776;51.046;6.772;2022-11-27T10:06:26;8.50;99.90
5508;DHT22;2776;51.046;6.772;2022-11-27T10:09:09;8.40;99.90
5508;DHT22;2776;51.046;6.772;2022-11-27T10:11:45;8.50;99.90
5508;DHT22;2776;51.046;6.772;2022-11-27T10:14:29;8.50;99.90
5508;DHT22;2776;51.046;6.772;2022-11-27T10:17:02;8.50;99.90
5508;DHT22;2776;51.046;6.772;2022-11-27T10:19:39;8.50;99.90
5508;DHT22;2776;51.046;6.772;2022-11-27T10:22:13;8.50;99.90
5508;DHT22;2776;51.046;6.772;2022-11-27T10:24:44;8.50;99.90
5508;DHT22;2776;51.046;6.772;2022-11-27T10:27:19;8.50;99.90
5508;DHT22;2776;51.046;6.772;2022-11-27T10:29:51;8.40;99.90
5508;DHT22;2776;51.046;6.772;2022-11-27T10:32:22;8.40;99.90
5508;DHT22;2776;51.046;6.772;2022-11-27T10:34:53;8.40;99.90
5508;DHT22;2776;51.046;6.772;2022-11-27T10:37:24;8.40;99.90
5508;DHT22;2776;51.046;6.772;2022-11-27T10:39:53;8.40;99.90
5508;DHT22;2776;51.046;6.772;2022-11-27T10:42:28;8.40;99.90
5508;DHT22;2776;51.046;6.772;2022-11-27T10:45:02;8.40;99.90
5508;DHT22;2776;51.046;6.772;2022-11-27T10:47:29;8.40;99.90
5508;DHT22;2776;51.046;6.772;2022-11-27T10:49:56;8.50;99.90
5508;DHT22;2776;51.046;6.772;2022-11-27T10:52:30;8.50;99.90
5508;DHT22;2776;51.046;6.772;2022-11-27T10:55:02;8.50;99.90
5508;DHT22;2776;51.046;6.772;2022-11-27T10:57:49;8.60;99.90
5508;DHT22;2776;51.046;6.772;2022-11-27T11:00:22;8.50;99.90
5508;DHT22;2776;51.046;6.772;2022-11-27T11:02:58;8.60;99.90
5508;DHT22;2776;51.046;6.772;2022-11-27T11:05:26;8.60;99.90
5508;DHT22;2776;51.046;6.772;2022-11-27T11:07:56;8.60;99.90
5508;DHT22;2776;51.046;6.772;2022-11-27T11:10:27;8.70;99.90
5508;DHT22;2776;51.046;6.772;2022-11-27T11:13:17;8.70;99.90
5508;DHT22;2776;51.046;6.772;2022-11-27T11:15:55;8.70;99.90
5508;DHT22;2776;51.046;6.772;2022-11-27T11:18:24;8.80;99.90
5508;DHT22;2776;51.046;6.772;2022-11-27T11:20:53;8.80;99.90
5508;DHT22;2776;51.046;6.772;2022-11-27T11:23:32;8.90;99.90
5508;DHT22;2776;51.046;6.772;2022-11-27T11:26:02;8.90;99.90
5508;DHT22;2776;51.046;6.772;2022-11-27T11:28:30;8.90;99.90
5508;DHT22;2776;51.046;6.772;2022-11-27T11:31:06;8.90;99.90
5508;DHT22;2776;51.046;6.772;2022-11-27T11:33:39;8.90;99.90
5508;DHT22;2776;51.046;6.772;2022-11-27T11:36:09;8.90;99.90
5508;DHT22;2776;51.046;6.772;2022-11-27T11:38:36;8.80;99.90
5508;DHT22;2776;51.046;6.772;2022-11-27T11:41:05;8.90;99.90
5508;DHT22;2776;51.046;6.772;2022-11-27T11:43:33;9.00;99.90
5508;DHT22;2776;51.046;6.772;2022-11-27T11:46:15;9.00;99.90
5508;DHT22;2776;51.046;6.772;2022-11-27T11:48:52;9.00;99.90
5508;DHT22;2776;51.046;6.772;2022-11-27T11:51:23;9.10;99.90
5508;DHT22;2776;51.046;6.772;2022-11-27T11:53:59;9.10;99.90
5508;DHT22;2776;51.046;6.772;2022-11-27T11:56:32;9.10;99.90
5508;DHT22;2776;51.046;6.772;2022-11-27T11:58:59;9.20;99.90
5508;DHT22;2776;51.046;6.772;2022-11-27T12:01:44;9.20;99.90
5508;DHT22;2776;51.046;6.772;2022-11-27T12:04:35;9.20;99.90
5508;DHT22;2776;51.046;6.772;2022-11-27T12:07:14;9.30;99.90
5508;DHT22;2776;51.046;6.772;2022-11-27T12:09:49;9.40;99.90
5508;DHT22;2776;51.046;6.772;2022-11-27T12:12:30;9.30;99.90
5508;DHT22;2776;51.046;6.772;2022-11-27T12:15:04;9.40;99.90
5508;DHT22;2776;51.046;6.772;2022-11-27T12:17:44;9.40;99.90
5508;DHT22;2776;51.046;6.772;2022-11-27T12:20:17;9.50;99.90
5508;DHT22;2776;51.046;6.772;2022-11-27T12:23:05;9.50;99.90
5508;DHT22;2776;51.046;6.772;2022-11-27T12:25:36;9.40;99.90
5508;DHT22;2776;51.046;6.772;2022-11-27T12:28:17;9.40;99.90
5508;DHT22;2776;51.046;6.772;2022-11-27T12:30:50;9.50;99.90
5508;DHT22;2776;51.046;6.772;2022-11-27T12:36:25;9.50;99.90
5508;DHT22;2776;51.046;6.772;2022-11-27T12:39:09;9.70;99.90
5508;DHT22;2776;51.046;6.772;2022-11-27T12:41:46;9.70;99.90
5508;DHT22;2776;51.046;6.772;2022-11-27T12:44:20;9.70;99.90
5508;DHT22;2776;51.046;6.772;2022-11-27T12:46:52;9.80;99.90
5508;DHT22;2776;51.046;6.772;2022-11-27T12:49:24;9.80;99.90
5508;DHT22;2776;51.046;6.772;2022-11-27T12:51:56;9.90;99.90
5508;DHT22;2776;51.046;6.772;2022-11-27T12:54:28;9.90;99.90
5508;DHT22;2776;51.046;6.772;2022-11-27T12:56:59;9.90;99.90
5508;DHT22;2776;51.046;6.772;2022-11-27T12:59:31;10.00;99.90
5508;DHT22;2776;51.046;6.772;2022-11-27T13:02:04;10.00;99.90
5508;DHT22;2776;51.046;6.772;2022-11-27T13:04:44;10.10;99.90
5508;DHT22;2776;51.046;6.772;2022-11-27T13:07:17;10.10;99.90
5508;DHT22;2776;51.046;6.772;2022-11-27T13:09:49;10.00;99.90
5508;DHT22;2776;51.046;6.772;2022-11-27T13:12:24;10.10;99.90
5508;DHT22;2776;51.046;6.772;2022-11-27T13:14:58;10.00;99.90
5508;DHT22;2776;51.046;6.772;2022-11-27T13:17:36;10.00;99.90
5508;DHT22;2776;51.046;6.772;2022-11-27T13:20:14;10.00;99.90
5508;DHT22;2776;51.046;6.772;2022-11-27T13:22:42;10.00;99.90
5508;DHT22;2776;51.046;6.772;2022-11-27T13:25:11;10.00;99.90
5508;DHT22;2776;51.046;6.772;2022-11-27T13:27:41;10.10;99.90
5508;DHT22;2776;51.046;6.772;2022-11-27T13:30:18;10.00;99.90
5508;DHT22;2776;51.046;6.772;2022-11-27T13:32:47;10.00;99.90
5508;DHT22;2776;51.046;6.772;2022-11-27T13:35:22;9.90;99.90
5508;DHT22;2776;51.046;6.772;2022-11-27T13:37:56;9.90;99.90
5508;DHT22;2776;51.046;6.772;2022-11-27T13:40:27;9.90;99.90
5508;DHT22;2776;51.046;6.772;2022-11-27T13:43:03;9.90;99.90
5508;DHT22;2776;51.046;6.772;2022-11-27T13:45:33;10.00;99.90
5508;DHT22;2776;51.046;6.772;2022-11-27T13:48:14;10.00;99.90
5508;DHT22;2776;51.046;6.772;2022-11-27T13:50:52;10.00;99.90
5508;DHT22;2776;51.046;6.772;2022-11-27T13:53:29;9.90;99.90
5508;DHT22;2776;51.046;6.772;2022-11-27T13:55:56;9.90;99.90
5508;DHT22;2776;51.046;6.772;2022-11-27T13:58:28;9.80;99.90
5508;DHT22;2776;51.046;6.772;2022-11-27T14:00:55;9.80;99.90
5508;DHT22;2776;51.046;6.772;2022-11-27T14:03:23;9.70;99.90
5508;DHT22;2776;51.046;6.772;2022-11-27T14:05:51;9.60;99.90
5508;DHT22;2776;51.046;6.772;2022-11-27T14:08:21;9.60;99.90
5508;DHT22;2776;51.046;6.772;2022-11-27T14:10:51;9.60;99.90
5508;DHT22;2776;51.046;6.772;2022-11-27T14:13:20;9.60;99.90
5508;DHT22;2776;51.046;6.772;2022-11-27T14:15:57;9.50;99.90
5508;DHT22;2776;51.046;6.772;2022-11-27T14:18:26;9.50;99.90
5508;DHT22;2776;51.046;6.772;2022-11-27T14:20:58;9.50;99.90
5508;DHT22;2776;51.046;6.772;2022-11-27T14:23:27;9.60;99.90
5508;DHT22;2776;51.046;6.772;2022-11-27T14:26:00;9.60;99.90
5508;DHT22;2776;51.046;6.772;2022-11-27T14:28:29;9.50;99.90
5508;DHT22;2776;51.046;6.772;2022-11-27T14:30:57;9.40;99.90
5508;DHT22;2776;51.046;6.772;2022-11-27T14:33:26;9.50;99.90
5508;DHT22;2776;51.046;6.772;2022-11-27T14:35:57;9.60;99.90
5508;DHT22;2776;51.046;6.772;2022-11-27T14:38:25;9.50;99.90
5508;DHT22;2776;51.046;6.772;2022-11-27T14:41:05;9.50;99.90
5508;DHT22;2776;51.046;6.772;2022-11-27T14:43:32;9.40;99.90
5508;DHT22;2776;51.046;6.772;2022-11-27T14:45:59;9.30;99.90
5508;DHT22;2776;51.046;6.772;2022-11-27T14:48:30;9.40;99.90
5508;DHT22;2776;51.046;6.772;2022-11-27T14:51:01;9.30;99.90
5508;DHT22;2776;51.046;6.772;2022-11-27T14:53:28;9.30;99.90
5508;DHT22;2776;51.046;6.772;2022-11-27T14:55:56;9.20;99.90
5508;DHT22;2776;51.046;6.772;2022-11-27T14:58:25;9.20;99.90
5508;DHT22;2776;51.046;6.772;2022-11-27T15:00:56;9.10;99.90
5508;DHT22;2776;51.046;6.772;2022-11-27T15:03:24;9.10;99.90
5508;DHT22;2776;51.046;6.772;2022-11-27T15:05:53;9.10;99.90
5508;DHT22;2776;51.046;6.772;2022-11-27T15:08:23;9.00;99.90
5508;DHT22;2776;51.046;6.772;2022-11-27T15:10:53;9.00;99.90
5508;DHT22;2776;51.046;6.772;2022-11-27T15:13:22;8.90;99.90
5508;DHT22;2776;51.046;6.772;2022-11-27T15:15:56;8.90;99.90
5508;DHT22;2776;51.046;6.772;2022-11-27T15:18:24;8.90;99.90
5508;DHT22;2776;51.046;6.772;2022-11-27T15:20:52;8.80;99.90
5508;DHT22;2776;51.046;6.772;2022-11-27T15:23:21;8.80;99.90
5508;DHT22;2776;51.046;6.772;2022-11-27T15:25:51;8.70;99.90
5508;DHT22;2776;51.046;6.772;2022-11-27T15:28:33;8.80;99.90
5508;DHT22;2776;51.046;6.772;2022-11-27T15:31:01;8.80;99.90
5508;DHT22;2776;51.046;6.772;2022-11-27T15:33:30;8.70;99.90
5508;DHT22;2776;51.046;6.772;2022-11-27T15:36:14;8.70;99.90
5508;DHT22;2776;51.046;6.772;2022-11-27T15:38:42;8.60;99.90
5508;DHT22;2776;51.046;6.772;2022-11-27T15:41:21;8.50;99.90
5508;DHT22;2776;51.046;6.772;2022-11-27T15:43:48;8.50;99.90
5508;DHT22;2776;51.046;6.772;2022-11-27T15:46:18;8.40;99.90
5508;DHT22;2776;51.046;6.772;2022-11-27T15:48:47;8.40;99.90
5508;DHT22;2776;51.046;6.772;2022-11-27T15:51:13;8.40;99.90
5508;DHT22;2776;51.046;6.772;2022-11-27T15:53:40;8.30;99.90
5508;DHT22;2776;51.046;6.772;2022-11-27T15:56:07;8.30;99.90
5508;DHT22;2776;51.046;6.772;2022-11-27T15:58:35;8.30;99.90
5508;DHT22;2776;51.046;6.772;2022-11-27T16:01:03;8.20;99.90
5508;DHT22;2776;51.046;6.772;2022-11-27T16:03:30;8.20;99.90
5508;DHT22;2776;51.046;6.772;2022-11-27T16:06:01;8.20;99.90
5508;DHT22;2776;51.046;6.772;2022-11-27T16:08:28;8.20;99.90
5508;DHT22;2776;51.046;6.772;2022-11-27T16:10:58;8.20;99.90
5508;DHT22;2776;51.046;6.772;2022-11-27T16:13:26;8.20;99.90
5508;DHT22;2776;51.046;6.772;2022-11-27T16:15:54;8.20;99.90
5508;DHT22;2776;51.046;6.772;2022-11-27T16:18:20;8.20;99.90
5508;DHT22;2776;51.046;6.772;2022-11-27T16:20:47;8.20;99.90
5508;DHT22;2776;51.046;6.772;2022-11-27T16:23:14;8.20;99.90
5508;DHT22;2776;51.046;6.772;2022-11-27T16:25:40;8.20;99.90
5508;DHT22;2776;51.046;6.772;2022-11-27T16:28:07;8.10;99.90
5508;DHT22;2776;51.046;6.772;2022-11-27T16:30:34;8.10;99.90
5508;DHT22;2776;51.046;6.772;2022-11-27T16:33:02;8.10;99.90
5508;DHT22;2776;51.046;6.772;2022-11-27T16:35:29;8.10;99.90
5508;DHT22;2776;51.046;6.772;2022-11-27T16:37:55;8.10;99.90
5508;DHT22;2776;51.046;6.772;2022-11-27T16:40:22;8.10;99.90
5508;DHT22;2776;51.046;6.772;2022-11-27T16:42:49;8.10;99.90